sensor_id;sensor_type;location;lat;lon;timestamp;temperature;humidity
75688;HTU21D;64300;45.034;38.910;2022-10-26T00:00:43;11.34;81.95
75688;HTU21D;64300;45.034;38.910;2022-10-26T00:07:21;11.22;81.62
75688;HTU21D;64300;45.034;38.910;2022-10-26T00:09:55;11.17;82.13
75688;HTU21D;64300;45.034;38.910;2022-10-26T00:15:38;11.17;82.87
75688;HTU21D;64300;45.034;38.910;2022-10-26T00:18:21;11.25;83.09
75688;HTU21D;64300;45.034;38.910;2022-10-26T00:21:03;11.33;83.06
75688;HTU21D;64300;45.034;38.910;2022-10-26T00:23:40;11.41;82.89
75688;HTU21D;64300;45.034;38.910;2022-10-26T00:28:52;11.59;82.71
75688;HTU21D;64300;45.034;38.910;2022-10-26T00:31:27;11.68;82.77
75688;HTU21D;64300;45.034;38.910;2022-10-26T00:33:56;11.73;82.57
75688;HTU21D;64300;45.034;38.910;2022-10-26T00:36:24;11.79;82.50
75688;HTU21D;64300;45.034;38.910;2022-10-26T00:38:52;11.85;82.37
75688;HTU21D;64300;45.034;38.910;2022-10-26T00:41:31;11.90;82.29
75688;HTU21D;64300;45.034;38.910;2022-10-26T00:49:48;12.00;82.06
75688;HTU21D;64300;45.034;38.910;2022-10-26T00:52:17;12.06;82.05
75688;HTU21D;64300;45.034;38.910;2022-10-26T00:54:44;12.11;81.92
75688;HTU21D;64300;45.034;38.910;2022-10-26T00:57:12;12.13;81.78
75688;HTU21D;64300;45.034;38.910;2022-10-26T00:59:39;12.16;81.70
75688;HTU21D;64300;45.034;38.910;2022-10-26T01:02:08;12.16;81.68
75688;HTU21D;64300;45.034;38.910;2022-10-26T01:04:34;12.18;81.67
75688;HTU21D;64300;45.034;38.910;2022-10-26T01:07:03;12.19;81.60
75688;HTU21D;64300;45.034;38.910;2022-10-26T01:09:31;12.18;81.52
75688;HTU21D;64300;45.034;38.910;2022-10-26T01:11:57;12.18;81.44
75688;HTU21D;64300;45.034;38.910;2022-10-26T01:14:25;12.15;81.43
75688;HTU21D;64300;45.034;38.910;2022-10-26T01:17:24;12.14;81.33
75688;HTU21D;64300;45.034;38.910;2022-10-26T01:23:01;12.07;81.43
75688;HTU21D;64300;45.034;38.910;2022-10-26T01:36:05;11.96;81.68
75688;HTU21D;64300;45.034;38.910;2022-10-26T01:38:24;11.94;81.65
75688;HTU21D;64300;45.034;38.910;2022-10-26T01:44:03;11.89;81.80
75688;HTU21D;64300;45.034;38.910;2022-10-26T01:46:35;11.89;81.88
75688;HTU21D;64300;45.034;38.910;2022-10-26T01:49:09;11.89;81.91
75688;HTU21D;64300;45.034;38.910;2022-10-26T02:18:29;11.67;82.43
75688;HTU21D;64300;45.034;38.910;2022-10-26T02:21:02;11.66;82.33
75688;HTU21D;64300;45.034;38.910;2022-10-26T02:23:45;11.63;82.52
75688;HTU21D;64300;45.034;38.910;2022-10-26T02:26:24;11.62;82.65
75688;HTU21D;64300;45.034;38.910;2022-10-26T02:29:03;11.62;82.70
75688;HTU21D;64300;45.034;38.910;2022-10-26T02:31:30;11.61;82.73
75688;HTU21D;64300;45.034;38.910;2022-10-26T02:34:02;11.60;82.78
75688;HTU21D;64300;45.034;38.910;2022-10-26T02:36:35;11.60;82.78
75688;HTU21D;64300;45.034;38.910;2022-10-26T02:39:04;11.57;82.82
75688;HTU21D;64300;45.034;38.910;2022-10-26T02:41:32;11.57;82.87
75688;HTU21D;64300;45.034;38.910;2022-10-26T02:44:08;11.56;82.95
75688;HTU21D;64300;45.034;38.910;2022-10-26T02:46:38;11.52;82.96
75688;HTU21D;64300;45.034;38.910;2022-10-26T02:49:04;11.49;83.03
75688;HTU21D;64300;45.034;38.910;2022-10-26T02:51:39;11.47;83.13
75688;HTU21D;64300;45.034;38.910;2022-10-26T02:54:25;11.42;83.16
75688;HTU21D;64300;45.034;38.910;2022-10-26T02:57:35;11.40;83.20
75688;HTU21D;64300;45.034;38.910;2022-10-26T03:00:06;11.33;83.42
75688;HTU21D;64300;45.034;38.910;2022-10-26T03:02:33;11.30;83.54
75688;HTU21D;64300;45.034;38.910;2022-10-26T03:16:23;11.10;84.07
75688;HTU21D;64300;45.034;38.910;2022-10-26T03:18:49;11.10;84.29
75688;HTU21D;64300;45.034;38.910;2022-10-26T03:21:15;11.12;84.44
75688;HTU21D;64300;45.034;38.910;2022-10-26T03:23:42;11.15;84.52
75688;HTU21D;64300;45.034;38.910;2022-10-26T03:26:15;11.15;84.38
75688;HTU21D;64300;45.034;38.910;2022-10-26T03:28:41;11.16;84.29
75688;HTU21D;64300;45.034;38.910;2022-10-26T03:31:13;11.17;84.34
75688;HTU21D;64300;45.034;38.910;2022-10-26T03:33:39;11.16;84.39
75688;HTU21D;64300;45.034;38.910;2022-10-26T03:36:05;11.16;84.35
75688;HTU21D;64300;45.034;38.910;2022-10-26T03:38:31;11.17;84.39
75688;HTU21D;64300;45.034;38.910;2022-10-26T03:40:57;11.18;84.41
75688;HTU21D;64300;45.034;38.910;2022-10-26T03:43:24;11.18;84.52
75688;HTU21D;64300;45.034;38.910;2022-10-26T03:45:53;11.20;84.52
75688;HTU21D;64300;45.034;38.910;2022-10-26T03:51:33;11.24;84.41
75688;HTU21D;64300;45.034;38.910;2022-10-26T03:53:59;11.25;84.48
75688;HTU21D;64300;45.034;38.910;2022-10-26T03:56:27;11.23;84.50
75688;HTU21D;64300;45.034;38.910;2022-10-26T03:59:25;11.23;84.57
75688;HTU21D;64300;45.034;38.910;2022-10-26T04:01:53;11.22;84.55
75688;HTU21D;64300;45.034;38.910;2022-10-26T04:04:46;11.22;84.61
75688;HTU21D;64300;45.034;38.910;2022-10-26T04:07:21;11.19;84.68
75688;HTU21D;64300;45.034;38.910;2022-10-26T04:09:47;11.18;84.65
75688;HTU21D;64300;45.034;38.910;2022-10-26T04:12:28;11.22;84.77
75688;HTU21D;64300;45.034;38.910;2022-10-26T04:16:09;11.19;84.85
75688;HTU21D;64300;45.034;38.910;2022-10-26T04:19:10;11.19;84.85
75688;HTU21D;64300;45.034;38.910;2022-10-26T04:29:56;11.24;85.05
75688;HTU21D;64300;45.034;38.910;2022-10-26T04:33:08;11.24;85.03
75688;HTU21D;64300;45.034;38.910;2022-10-26T04:40:34;11.32;84.81
75688;HTU21D;64300;45.034;38.910;2022-10-26T04:43:06;11.34;84.75
75688;HTU21D;64300;45.034;38.910;2022-10-26T04:45:55;11.42;84.67
75688;HTU21D;64300;45.034;38.910;2022-10-26T04:48:34;11.49;84.58
75688;HTU21D;64300;45.034;38.910;2022-10-26T04:51:20;11.58;84.45
75688;HTU21D;64300;45.034;38.910;2022-10-26T04:53:58;11.69;84.32
75688;HTU21D;64300;45.034;38.910;2022-10-26T04:56:49;11.79;84.07
75688;HTU21D;64300;45.034;38.910;2022-10-26T04:59:35;11.87;83.87
75688;HTU21D;64300;45.034;38.910;2022-10-26T05:02:45;11.97;83.63
75688;HTU21D;64300;45.034;38.910;2022-10-26T05:52:44;13.46;80.28
75688;HTU21D;64300;45.034;38.910;2022-10-26T05:55:15;13.55;79.99
75688;HTU21D;64300;45.034;38.910;2022-10-26T05:57:43;13.64;79.65
75688;HTU21D;64300;45.034;38.910;2022-10-26T06:00:15;13.76;79.31
75688;HTU21D;64300;45.034;38.910;2022-10-26T06:05:20;13.97;79.08
75688;HTU21D;64300;45.034;38.910;2022-10-26T06:07:47;14.09;78.82
75688;HTU21D;64300;45.034;38.910;2022-10-26T06:10:17;14.19;78.57
75688;HTU21D;64300;45.034;38.910;2022-10-26T06:12:44;14.23;78.30
75688;HTU21D;64300;45.034;38.910;2022-10-26T06:15:20;14.30;78.08
75688;HTU21D;64300;45.034;38.910;2022-10-26T06:31:43;14.70;77.51
75688;HTU21D;64300;45.034;38.910;2022-10-26T06:34:11;14.80;77.18
75688;HTU21D;64300;45.034;38.910;2022-10-26T06:36:40;14.93;76.93
75688;HTU21D;64300;45.034;38.910;2022-10-26T06:39:09;15.04;76.57
75688;HTU21D;64300;45.034;38.910;2022-10-26T06:41:38;15.13;76.11
75688;HTU21D;64300;45.034;38.910;2022-10-26T06:44:04;15.22;75.96
75688;HTU21D;64300;45.034;38.910;2022-10-26T06:46:38;15.32;75.74
75688;HTU21D;64300;45.034;38.910;2022-10-26T06:51:57;15.59;75.21
75688;HTU21D;64300;45.034;38.910;2022-10-26T06:54:49;15.74;75.02
75688;HTU21D;64300;45.034;38.910;2022-10-26T06:57:21;15.91;74.80
75688;HTU21D;64300;45.034;38.910;2022-10-26T07:02:17;16.19;74.22
75688;HTU21D;64300;45.034;38.910;2022-10-26T07:04:43;16.36;73.75
75688;HTU21D;64300;45.034;38.910;2022-10-26T07:07:20;16.52;73.28
75688;HTU21D;64300;45.034;38.910;2022-10-26T07:09:47;16.67;72.95
75688;HTU21D;64300;45.034;38.910;2022-10-26T07:12:13;16.80;72.35
75688;HTU21D;64300;45.034;38.910;2022-10-26T07:14:39;16.93;72.03
75688;HTU21D;64300;45.034;38.910;2022-10-26T07:17:08;17.06;71.55
75688;HTU21D;64300;45.034;38.910;2022-10-26T07:19:34;17.17;71.02
75688;HTU21D;64300;45.034;38.910;2022-10-26T07:22:01;17.26;70.69
75688;HTU21D;64300;45.034;38.910;2022-10-26T07:24:27;17.35;70.10
75688;HTU21D;64300;45.034;38.910;2022-10-26T07:26:55;17.43;69.46
75688;HTU21D;64300;45.034;38.910;2022-10-26T07:29:25;17.46;68.75
75688;HTU21D;64300;45.034;38.910;2022-10-26T07:31:52;17.48;68.59
75688;HTU21D;64300;45.034;38.910;2022-10-26T07:34:18;17.51;68.62
75688;HTU21D;64300;45.034;38.910;2022-10-26T07:36:44;17.55;68.32
75688;HTU21D;64300;45.034;38.910;2022-10-26T07:39:15;17.59;67.86
75688;HTU21D;64300;45.034;38.910;2022-10-26T07:41:44;17.61;67.72
75688;HTU21D;64300;45.034;38.910;2022-10-26T07:44:11;17.62;67.56
75688;HTU21D;64300;45.034;38.910;2022-10-26T07:46:40;17.63;67.10
75688;HTU21D;64300;45.034;38.910;2022-10-26T07:49:06;17.62;66.92
75688;HTU21D;64300;45.034;38.910;2022-10-26T07:51:32;17.63;66.74
75688;HTU21D;64300;45.034;38.910;2022-10-26T07:53:58;17.61;66.47
75688;HTU21D;64300;45.034;38.910;2022-10-26T07:56:23;17.60;66.25
75688;HTU21D;64300;45.034;38.910;2022-10-26T07:58:53;17.61;66.41
75688;HTU21D;64300;45.034;38.910;2022-10-26T08:01:20;17.61;66.23
75688;HTU21D;64300;45.034;38.910;2022-10-26T08:03:51;17.61;65.98
75688;HTU21D;64300;45.034;38.910;2022-10-26T08:06:17;17.63;65.96
75688;HTU21D;64300;45.034;38.910;2022-10-26T08:08:43;17.66;65.98
75688;HTU21D;64300;45.034;38.910;2022-10-26T08:11:12;17.73;65.68
75688;HTU21D;64300;45.034;38.910;2022-10-26T08:13:38;17.78;65.67
75688;HTU21D;64300;45.034;38.910;2022-10-26T08:16:04;17.87;65.34
75688;HTU21D;64300;45.034;38.910;2022-10-26T08:18:31;17.95;64.97
75688;HTU21D;64300;45.034;38.910;2022-10-26T08:21:06;17.98;64.55
75688;HTU21D;64300;45.034;38.910;2022-10-26T08:23:32;18.08;64.29
75688;HTU21D;64300;45.034;38.910;2022-10-26T08:25:59;18.17;63.89
75688;HTU21D;64300;45.034;38.910;2022-10-26T08:28:25;18.24;63.68
75688;HTU21D;64300;45.034;38.910;2022-10-26T08:30:52;18.32;63.26
75688;HTU21D;64300;45.034;38.910;2022-10-26T08:33:18;18.40;63.07
75688;HTU21D;64300;45.034;38.910;2022-10-26T08:35:44;18.49;62.97
75688;HTU21D;64300;45.034;38.910;2022-10-26T08:38:10;18.55;62.78
75688;HTU21D;64300;45.034;38.910;2022-10-26T08:40:38;18.64;62.33
75688;HTU21D;64300;45.034;38.910;2022-10-26T08:43:18;18.67;62.15
75688;HTU21D;64300;45.034;38.910;2022-10-26T08:46:19;18.69;62.00
75688;HTU21D;64300;45.034;38.910;2022-10-26T08:48:46;18.70;61.88
75688;HTU21D;64300;45.034;38.910;2022-10-26T08:51:29;18.70;61.51
75688;HTU21D;64300;45.034;38.910;2022-10-26T08:54:15;18.73;61.52
75688;HTU21D;64300;45.034;38.910;2022-10-26T08:56:51;18.76;61.31
75688;HTU21D;64300;45.034;38.910;2022-10-26T08:59:33;18.79;61.18
75688;HTU21D;64300;45.034;38.910;2022-10-26T09:02:00;18.83;60.98
75688;HTU21D;64300;45.034;38.910;2022-10-26T09:04:29;18.86;60.59
75688;HTU21D;64300;45.034;38.910;2022-10-26T09:07:04;18.92;60.09
75688;HTU21D;64300;45.034;38.910;2022-10-26T09:09:50;18.97;59.95
75688;HTU21D;64300;45.034;38.910;2022-10-26T09:15:27;19.05;58.60
75688;HTU21D;64300;45.034;38.910;2022-10-26T09:18:02;19.09;58.83
75688;HTU21D;64300;45.034;38.910;2022-10-26T09:20:37;19.13;58.76
75688;HTU21D;64300;45.034;38.910;2022-10-26T09:25:37;19.26;58.80
75688;HTU21D;64300;45.034;38.910;2022-10-26T09:28:04;19.30;58.58
75688;HTU21D;64300;45.034;38.910;2022-10-26T09:30:33;19.35;58.05
75688;HTU21D;64300;45.034;38.910;2022-10-26T09:35:46;19.45;58.28
75688;HTU21D;64300;45.034;38.910;2022-10-26T09:38:19;19.48;57.66
75688;HTU21D;64300;45.034;38.910;2022-10-26T09:41:04;19.52;57.63
75688;HTU21D;64300;45.034;38.910;2022-10-26T09:43:46;19.53;57.50
75688;HTU21D;64300;45.034;38.910;2022-10-26T09:46:26;19.57;57.51
75688;HTU21D;64300;45.034;38.910;2022-10-26T09:48:55;19.58;57.29
75688;HTU21D;64300;45.034;38.910;2022-10-26T09:51:22;19.59;57.24
75688;HTU21D;64300;45.034;38.910;2022-10-26T09:54:19;19.61;57.15
75688;HTU21D;64300;45.034;38.910;2022-10-26T09:56:50;19.61;56.92
75688;HTU21D;64300;45.034;38.910;2022-10-26T09:59:20;19.59;56.38
75688;HTU21D;64300;45.034;38.910;2022-10-26T10:01:47;19.59;56.07
75688;HTU21D;64300;45.034;38.910;2022-10-26T10:06:43;19.58;55.37
75688;HTU21D;64300;45.034;38.910;2022-10-26T10:09:20;19.61;55.57
75688;HTU21D;64300;45.034;38.910;2022-10-26T10:11:51;19.60;55.63
75688;HTU21D;64300;45.034;38.910;2022-10-26T10:14:39;19.60;55.20
75688;HTU21D;64300;45.034;38.910;2022-10-26T10:17:35;19.58;55.38
75688;HTU21D;64300;45.034;38.910;2022-10-26T10:20:15;19.60;54.91
75688;HTU21D;64300;45.034;38.910;2022-10-26T10:23:04;19.63;55.11
75688;HTU21D;64300;45.034;38.910;2022-10-26T10:25:47;19.67;54.76
75688;HTU21D;64300;45.034;38.910;2022-10-26T10:28:30;19.67;54.65
75688;HTU21D;64300;45.034;38.910;2022-10-26T10:30:59;19.67;54.33
75688;HTU21D;64300;45.034;38.910;2022-10-26T10:33:36;19.69;54.23
75688;HTU21D;64300;45.034;38.910;2022-10-26T10:36:19;19.72;54.07
75688;HTU21D;64300;45.034;38.910;2022-10-26T10:38:50;19.75;54.01
75688;HTU21D;64300;45.034;38.910;2022-10-26T10:41:48;19.79;54.24
75688;HTU21D;64300;45.034;38.910;2022-10-26T10:44:23;19.81;54.30
75688;HTU21D;64300;45.034;38.910;2022-10-26T10:47:20;19.84;54.34
75688;HTU21D;64300;45.034;38.910;2022-10-26T10:53:44;19.92;54.48
75688;HTU21D;64300;45.034;38.910;2022-10-26T11:00:07;19.98;54.18
75688;HTU21D;64300;45.034;38.910;2022-10-26T11:06:34;19.97;53.67
75688;HTU21D;64300;45.034;38.910;2022-10-26T11:08:53;19.94;53.62
75688;HTU21D;64300;45.034;38.910;2022-10-26T11:11:44;19.87;53.57
75688;HTU21D;64300;45.034;38.910;2022-10-26T11:14:27;19.81;53.77
75688;HTU21D;64300;45.034;38.910;2022-10-26T11:19:46;19.70;54.01
75688;HTU21D;64300;45.034;38.910;2022-10-26T11:22:16;19.66;53.88
75688;HTU21D;64300;45.034;38.910;2022-10-26T11:24:56;19.63;53.84
75688;HTU21D;64300;45.034;38.910;2022-10-26T11:27:35;19.60;54.11
75688;HTU21D;64300;45.034;38.910;2022-10-26T11:30:21;19.56;54.33
75688;HTU21D;64300;45.034;38.910;2022-10-26T11:32:59;19.51;53.95
75688;HTU21D;64300;45.034;38.910;2022-10-26T11:35:44;19.43;54.44
75688;HTU21D;64300;45.034;38.910;2022-10-26T11:40:49;19.29;54.94
75688;HTU21D;64300;45.034;38.910;2022-10-26T11:48:50;19.11;55.68
75688;HTU21D;64300;45.034;38.910;2022-10-26T11:51:37;19.06;55.84
75688;HTU21D;64300;45.034;38.910;2022-10-26T11:54:11;19.01;55.99
75688;HTU21D;64300;45.034;38.910;2022-10-26T11:56:44;18.95;56.21
75688;HTU21D;64300;45.034;38.910;2022-10-26T11:59:29;18.94;56.50
75688;HTU21D;64300;45.034;38.910;2022-10-26T12:01:58;18.89;56.85
75688;HTU21D;64300;45.034;38.910;2022-10-26T12:04:29;18.83;57.03
75688;HTU21D;64300;45.034;38.910;2022-10-26T12:06:56;18.77;57.29
75688;HTU21D;64300;45.034;38.910;2022-10-26T12:09:31;18.76;57.32
75688;HTU21D;64300;45.034;38.910;2022-10-26T12:12:08;18.70;57.49
75688;HTU21D;64300;45.034;38.910;2022-10-26T12:14:57;18.68;57.70
75688;HTU21D;64300;45.034;38.910;2022-10-26T12:17:38;18.64;57.80
75688;HTU21D;64300;45.034;38.910;2022-10-26T12:22:53;18.51;58.51
75688;HTU21D;64300;45.034;38.910;2022-10-26T12:25:20;18.44;58.90
75688;HTU21D;64300;45.034;38.910;2022-10-26T12:38:00;18.24;59.99
75688;HTU21D;64300;45.034;38.910;2022-10-26T12:45:40;18.19;60.64
75688;HTU21D;64300;45.034;38.910;2022-10-26T12:48:20;18.21;60.56
75688;HTU21D;64300;45.034;38.910;2022-10-26T12:50:47;18.20;60.71
75688;HTU21D;64300;45.034;38.910;2022-10-26T12:53:14;18.20;60.86
75688;HTU21D;64300;45.034;38.910;2022-10-26T12:58:31;18.22;61.27
75688;HTU21D;64300;45.034;38.910;2022-10-26T13:03:29;18.22;61.21
75688;HTU21D;64300;45.034;38.910;2022-10-26T13:08:43;18.24;61.60
75688;HTU21D;64300;45.034;38.910;2022-10-26T13:11:27;18.24;61.60
75688;HTU21D;64300;45.034;38.910;2022-10-26T13:13:59;18.20;61.88
75688;HTU21D;64300;45.034;38.910;2022-10-26T13:16:27;18.14;62.03
75688;HTU21D;64300;45.034;38.910;2022-10-26T13:18:55;18.07;62.15
75688;HTU21D;64300;45.034;38.910;2022-10-26T13:21:22;17.99;62.39
75688;HTU21D;64300;45.034;38.910;2022-10-26T13:26:19;17.84;62.83
75688;HTU21D;64300;45.034;38.910;2022-10-26T13:34:16;17.65;63.55
75688;HTU21D;64300;45.034;38.910;2022-10-26T13:39:54;17.53;63.75
75688;HTU21D;64300;45.034;38.910;2022-10-26T13:42:28;17.45;64.06
75688;HTU21D;64300;45.034;38.910;2022-10-26T13:45:14;17.40;64.21
75688;HTU21D;64300;45.034;38.910;2022-10-26T13:47:48;17.36;64.53
75688;HTU21D;64300;45.034;38.910;2022-10-26T13:50:23;17.33;64.59
75688;HTU21D;64300;45.034;38.910;2022-10-26T13:52:55;17.29;64.72
75688;HTU21D;64300;45.034;38.910;2022-10-26T13:55:28;17.25;64.90
75688;HTU21D;64300;45.034;38.910;2022-10-26T13:58:28;17.22;64.85
75688;HTU21D;64300;45.034;38.910;2022-10-26T14:01:20;17.17;65.02
75688;HTU21D;64300;45.034;38.910;2022-10-26T14:03:50;17.09;65.30
75688;HTU21D;64300;45.034;38.910;2022-10-26T14:06:39;17.07;65.29
75688;HTU21D;64300;45.034;38.910;2022-10-26T14:09:12;17.04;65.63
75688;HTU21D;64300;45.034;38.910;2022-10-26T14:14:22;16.98;65.86
75688;HTU21D;64300;45.034;38.910;2022-10-26T14:16:51;16.94;66.00
75688;HTU21D;64300;45.034;38.910;2022-10-26T14:21:48;16.89;66.07
75688;HTU21D;64300;45.034;38.910;2022-10-26T14:24:29;16.89;66.04
75688;HTU21D;64300;45.034;38.910;2022-10-26T14:26:56;16.87;66.24
75688;HTU21D;64300;45.034;38.910;2022-10-26T14:29:25;16.82;66.20
75688;HTU21D;64300;45.034;38.910;2022-10-26T14:31:52;16.82;66.27
75688;HTU21D;64300;45.034;38.910;2022-10-26T14:34:20;16.80;66.35
75688;HTU21D;64300;45.034;38.910;2022-10-26T14:37:01;16.80;66.37
75688;HTU21D;64300;45.034;38.910;2022-10-26T14:39:38;16.76;66.53
75688;HTU21D;64300;45.034;38.910;2022-10-26T14:44:50;16.71;66.61
75688;HTU21D;64300;45.034;38.910;2022-10-26T14:47:35;16.71;66.44
75688;HTU21D;64300;45.034;38.910;2022-10-26T14:50:02;16.66;66.81
75688;HTU21D;64300;45.034;38.910;2022-10-26T14:52:30;16.65;66.96
75688;HTU21D;64300;45.034;38.910;2022-10-26T14:55:11;16.64;66.98
75688;HTU21D;64300;45.034;38.910;2022-10-26T14:57:39;16.61;67.15
75688;HTU21D;64300;45.034;38.910;2022-10-26T15:02:56;16.62;67.24
75688;HTU21D;64300;45.034;38.910;2022-10-26T15:07:49;16.60;67.30
75688;HTU21D;64300;45.034;38.910;2022-10-26T15:15:36;16.54;67.61
75688;HTU21D;64300;45.034;38.910;2022-10-26T15:18:02;16.55;67.72
75688;HTU21D;64300;45.034;38.910;2022-10-26T15:20:30;16.52;67.79
75688;HTU21D;64300;45.034;38.910;2022-10-26T15:23:03;16.52;67.79
75688;HTU21D;64300;45.034;38.910;2022-10-26T15:25:32;16.52;67.94
75688;HTU21D;64300;45.034;38.910;2022-10-26T15:31:59;16.50;67.99
75688;HTU21D;64300;45.034;38.910;2022-10-26T15:34:25;16.47;68.17
75688;HTU21D;64300;45.034;38.910;2022-10-26T15:36:51;16.47;68.20
75688;HTU21D;64300;45.034;38.910;2022-10-26T15:39:17;16.48;68.26
75688;HTU21D;64300;45.034;38.910;2022-10-26T15:41:47;16.52;68.41
75688;HTU21D;64300;45.034;38.910;2022-10-26T15:47:04;16.54;68.58
75688;HTU21D;64300;45.034;38.910;2022-10-26T15:49:30;16.55;68.84
75688;HTU21D;64300;45.034;38.910;2022-10-26T15:52:01;16.57;68.95
75688;HTU21D;64300;45.034;38.910;2022-10-26T15:54:27;16.55;69.10
75688;HTU21D;64300;45.034;38.910;2022-10-26T15:56:53;16.58;69.55
75688;HTU21D;64300;45.034;38.910;2022-10-26T15:59:20;16.54;69.66
75688;HTU21D;64300;45.034;38.910;2022-10-26T16:01:46;16.55;69.87
75688;HTU21D;64300;45.034;38.910;2022-10-26T16:04:12;16.54;70.02
75688;HTU21D;64300;45.034;38.910;2022-10-26T16:06:40;16.52;69.99
75688;HTU21D;64300;45.034;38.910;2022-10-26T16:09:12;16.54;69.94
75688;HTU21D;64300;45.034;38.910;2022-10-26T16:11:40;16.54;70.11
75688;HTU21D;64300;45.034;38.910;2022-10-26T16:14:08;16.51;70.28
75688;HTU21D;64300;45.034;38.910;2022-10-26T16:16:36;16.50;70.13
75688;HTU21D;64300;45.034;38.910;2022-10-26T16:19:05;16.50;70.06
75688;HTU21D;64300;45.034;38.910;2022-10-26T16:21:30;16.49;70.08
75688;HTU21D;64300;45.034;38.910;2022-10-26T16:23:56;16.50;70.15
75688;HTU21D;64300;45.034;38.910;2022-10-26T16:26:25;16.48;70.10
75688;HTU21D;64300;45.034;38.910;2022-10-26T16:28:52;16.48;70.30
75688;HTU21D;64300;45.034;38.910;2022-10-26T16:31:19;16.48;70.23
75688;HTU21D;64300;45.034;38.910;2022-10-26T16:33:48;16.46;70.17
75688;HTU21D;64300;45.034;38.910;2022-10-26T16:36:25;16.47;70.28
75688;HTU21D;64300;45.034;38.910;2022-10-26T16:38:54;16.43;70.31
75688;HTU21D;64300;45.034;38.910;2022-10-26T16:41:20;16.40;70.55
75688;HTU21D;64300;45.034;38.910;2022-10-26T16:43:46;16.37;70.69
75688;HTU21D;64300;45.034;38.910;2022-10-26T16:48:39;16.36;70.76
75688;HTU21D;64300;45.034;38.910;2022-10-26T16:51:14;16.40;70.76
75688;HTU21D;64300;45.034;38.910;2022-10-26T16:53:41;16.42;70.80
75688;HTU21D;64300;45.034;38.910;2022-10-26T16:56:12;16.44;70.93
75688;HTU21D;64300;45.034;38.910;2022-10-26T16:58:39;16.44;70.91
75688;HTU21D;64300;45.034;38.910;2022-10-26T17:01:06;16.46;70.81
75688;HTU21D;64300;45.034;38.910;2022-10-26T17:03:33;16.44;70.85
75688;HTU21D;64300;45.034;38.910;2022-10-26T17:06:02;16.43;70.87
75688;HTU21D;64300;45.034;38.910;2022-10-26T17:08:30;16.41;70.81
75688;HTU21D;64300;45.034;38.910;2022-10-26T17:11:11;16.37;70.68
75688;HTU21D;64300;45.034;38.910;2022-10-26T17:13:39;16.34;70.90
75688;HTU21D;64300;45.034;38.910;2022-10-26T17:16:10;16.28;71.98
75688;HTU21D;64300;45.034;38.910;2022-10-26T17:18:39;16.21;71.94
75688;HTU21D;64300;45.034;38.910;2022-10-26T17:21:07;16.21;71.52
75688;HTU21D;64300;45.034;38.910;2022-10-26T17:23:33;16.19;71.50
75688;HTU21D;64300;45.034;38.910;2022-10-26T17:26:13;16.19;71.74
75688;HTU21D;64300;45.034;38.910;2022-10-26T17:28:39;16.17;71.89
75688;HTU21D;64300;45.034;38.910;2022-10-26T17:33:36;16.13;72.25
75688;HTU21D;64300;45.034;38.910;2022-10-26T17:36:04;16.13;72.18
75688;HTU21D;64300;45.034;38.910;2022-10-26T17:38:38;16.15;72.29
75688;HTU21D;64300;45.034;38.910;2022-10-26T17:41:07;16.18;72.80
75688;HTU21D;64300;45.034;38.910;2022-10-26T17:43:35;16.16;72.94
75688;HTU21D;64300;45.034;38.910;2022-10-26T17:46:05;16.13;73.25
75688;HTU21D;64300;45.034;38.910;2022-10-26T17:48:32;16.12;73.52
75688;HTU21D;64300;45.034;38.910;2022-10-26T17:51:00;16.08;73.99
75688;HTU21D;64300;45.034;38.910;2022-10-26T17:53:27;16.03;74.16
75688;HTU21D;64300;45.034;38.910;2022-10-26T17:58:32;15.93;74.74
75688;HTU21D;64300;45.034;38.910;2022-10-26T18:01:03;15.88;75.03
75688;HTU21D;64300;45.034;38.910;2022-10-26T18:03:29;15.83;75.46
75688;HTU21D;64300;45.034;38.910;2022-10-26T18:05:56;15.77;75.56
75688;HTU21D;64300;45.034;38.910;2022-10-26T18:08:23;15.75;75.86
75688;HTU21D;64300;45.034;38.910;2022-10-26T18:10:51;15.73;76.14
75688;HTU21D;64300;45.034;38.910;2022-10-26T18:13:17;15.69;76.30
75688;HTU21D;64300;45.034;38.910;2022-10-26T18:15:44;15.65;76.54
75688;HTU21D;64300;45.034;38.910;2022-10-26T18:18:10;15.60;76.85
75688;HTU21D;64300;45.034;38.910;2022-10-26T18:20:37;15.58;77.10
75688;HTU21D;64300;45.034;38.910;2022-10-26T18:23:03;15.56;77.22
75688;HTU21D;64300;45.034;38.910;2022-10-26T18:25:30;15.54;77.34
75688;HTU21D;64300;45.034;38.910;2022-10-26T18:27:57;15.53;77.59
75688;HTU21D;64300;45.034;38.910;2022-10-26T18:30:23;15.53;77.60
75688;HTU21D;64300;45.034;38.910;2022-10-26T18:32:50;15.52;77.68
75688;HTU21D;64300;45.034;38.910;2022-10-26T18:35:17;15.52;77.79
75688;HTU21D;64300;45.034;38.910;2022-10-26T18:37:43;15.49;77.91
75688;HTU21D;64300;45.034;38.910;2022-10-26T18:40:10;15.51;77.84
75688;HTU21D;64300;45.034;38.910;2022-10-26T18:42:40;15.49;77.95
75688;HTU21D;64300;45.034;38.910;2022-10-26T18:45:06;15.49;77.94
75688;HTU21D;64300;45.034;38.910;2022-10-26T18:47:33;15.49;77.96
75688;HTU21D;64300;45.034;38.910;2022-10-26T18:50:00;15.48;78.01
75688;HTU21D;64300;45.034;38.910;2022-10-26T18:52:29;15.48;78.05
75688;HTU21D;64300;45.034;38.910;2022-10-26T18:54:55;15.47;78.13
75688;HTU21D;64300;45.034;38.910;2022-10-26T18:57:23;15.47;78.22
75688;HTU21D;64300;45.034;38.910;2022-10-26T18:59:52;15.46;78.30
75688;HTU21D;64300;45.034;38.910;2022-10-26T19:02:18;15.45;78.35
75688;HTU21D;64300;45.034;38.910;2022-10-26T19:04:46;15.46;78.43
75688;HTU21D;64300;45.034;38.910;2022-10-26T19:07:12;15.45;78.53
75688;HTU21D;64300;45.034;38.910;2022-10-26T19:09:38;15.44;78.70
75688;HTU21D;64300;45.034;38.910;2022-10-26T19:12:05;15.45;78.77
75688;HTU21D;64300;45.034;38.910;2022-10-26T19:14:31;15.47;78.72
75688;HTU21D;64300;45.034;38.910;2022-10-26T19:16:57;15.49;78.72
75688;HTU21D;64300;45.034;38.910;2022-10-26T19:19:23;15.51;78.77
75688;HTU21D;64300;45.034;38.910;2022-10-26T19:21:49;15.52;78.78
75688;HTU21D;64300;45.034;38.910;2022-10-26T19:24:18;15.55;78.79
75688;HTU21D;64300;45.034;38.910;2022-10-26T19:26:45;15.56;78.85
75688;HTU21D;64300;45.034;38.910;2022-10-26T19:29:15;15.58;78.85
75688;HTU21D;64300;45.034;38.910;2022-10-26T19:31:43;15.59;78.85
75688;HTU21D;64300;45.034;38.910;2022-10-26T19:34:11;15.58;78.83
75688;HTU21D;64300;45.034;38.910;2022-10-26T19:36:37;15.59;78.82
75688;HTU21D;64300;45.034;38.910;2022-10-26T19:39:04;15.58;78.82
75688;HTU21D;64300;45.034;38.910;2022-10-26T19:41:34;15.53;78.88
75688;HTU21D;64300;45.034;38.910;2022-10-26T19:44:00;15.52;79.00
75688;HTU21D;64300;45.034;38.910;2022-10-26T19:46:27;15.49;79.11
75688;HTU21D;64300;45.034;38.910;2022-10-26T19:48:58;15.51;79.15
75688;HTU21D;64300;45.034;38.910;2022-10-26T19:51:26;15.51;79.21